createdAt,value
2024-03-02T00:00:51.033Z,99254.56
2024-03-02T00:03:18.070Z,99246.59
2024-03-02T00:05:44.999Z,99243.09
2024-03-02T00:08:11.573Z,99247.31
2024-03-02T00:10:42.361Z,99240.59
2024-03-02T00:13:09.687Z,99232.91
2024-03-02T00:15:45.351Z,99229.56
2024-03-02T00:18:14.011Z,99233.63
2024-03-02T00:20:41.989Z,99225.53
2024-03-02T00:23:10.459Z,99222.50
2024-03-02T00:25:45.002Z,99223.63
2024-03-02T00:28:23.487Z,99228.94
2024-03-02T00:30:58.361Z,99227.03
2024-03-02T00:33:29.038Z,99226.47
2024-03-02T00:35:55.950Z,99224.66
2024-03-02T00:38:23.599Z,99228.72
2024-03-02T00:40:50.312Z,99231.22
2024-03-02T00:43:44.181Z,99225.06
2024-03-02T00:46:20.566Z,99233.28
2024-03-02T00:48:53.160Z,99228.69
2024-03-02T00:51:19.800Z,99232.59
2024-03-02T00:53:46.713Z,99234.00
2024-03-02T00:56:13.469Z,99235.56
2024-03-02T00:58:40.908Z,99230.53
2024-03-02T01:01:08.834Z,99229.84
2024-03-02T01:03:35.709Z,99232.47
2024-03-02T01:06:02.484Z,99232.31
2024-03-02T01:08:29.128Z,99227.59
2024-03-02T01:10:56.012Z,99228.00
2024-03-02T01:13:24.414Z,99232.59
2024-03-02T01:15:51.714Z,99231.19
2024-03-02T01:18:18.799Z,99231.31
2024-03-02T01:20:45.496Z,99229.22
2024-03-02T01:23:12.414Z,99227.84
2024-03-02T01:25:39.070Z,99214.97
2024-03-02T01:28:06.357Z,99212.03
2024-03-02T01:30:33.085Z,99211.88
2024-03-02T01:33:01.483Z,99209.25
2024-03-02T01:35:28.135Z,99204.66
2024-03-02T01:37:55.279Z,99206.28
2024-03-02T01:40:21.952Z,99196.69
2024-03-02T01:42:48.682Z,99191.78
2024-03-02T01:45:15.424Z,99187.03
2024-03-02T01:47:42.089Z,99185.66
2024-03-02T01:50:09.574Z,99183.88
2024-03-02T01:52:36.154Z,99187.66
2024-03-02T01:55:02.808Z,99191.13
2024-03-02T01:57:29.414Z,99197.72
2024-03-02T01:59:56.526Z,99192.72
2024-03-02T02:02:23.261Z,99189.47
2024-03-02T02:04:49.810Z,99198.84
2024-03-02T02:07:16.451Z,99196.06
2024-03-02T02:09:43.631Z,99198.28
2024-03-02T02:12:13.457Z,99197.47
2024-03-02T02:14:41.171Z,99210.16
2024-03-02T02:17:08.032Z,99219.38
2024-03-02T02:19:34.627Z,99224.94
2024-03-02T02:22:01.270Z,99224.69
2024-03-02T02:24:27.851Z,99227.75
2024-03-02T02:26:54.455Z,99230.41
2024-03-02T02:29:21.101Z,99225.78
2024-03-02T02:31:47.675Z,99225.38
2024-03-02T02:34:15.560Z,99223.97
2024-03-02T02:36:42.825Z,99228.44
2024-03-02T02:39:14.412Z,99233.31
2024-03-02T02:41:41.134Z,99231.06
2024-03-02T02:44:07.767Z,99217.53
2024-03-02T02:46:34.434Z,99220.59
2024-03-02T02:49:01.053Z,99224.09
2024-03-02T02:51:27.797Z,99224.63
2024-03-02T02:53:54.566Z,99222.56
2024-03-02T02:56:21.194Z,99215.41
2024-03-02T02:58:47.846Z,99214.44
2024-03-02T03:01:14.601Z,99215.25
2024-03-02T03:03:41.847Z,99218.63
2024-03-02T03:06:08.421Z,99222.25
2024-03-02T03:08:35.085Z,99224.63
2024-03-02T03:11:01.936Z,99221.28
2024-03-02T03:13:28.540Z,99222.84
2024-03-02T03:15:55.288Z,99224.50
2024-03-02T03:18:22.022Z,99226.19
2024-03-02T03:20:48.738Z,99230.09
2024-03-02T03:23:17.317Z,99228.00
2024-03-02T03:25:44.532Z,99226.75
2024-03-02T03:28:11.144Z,99232.63
2024-03-02T03:30:40.955Z,99234.31
2024-03-02T03:33:07.821Z,99228.84
2024-03-02T03:35:34.653Z,99231.06
2024-03-02T03:38:01.285Z,99228.00
2024-03-02T03:40:27.904Z,99229.56
2024-03-02T03:42:55.080Z,99222.28
2024-03-02T03:45:22.239Z,99227.44
2024-03-02T03:47:49.206Z,99233.19
2024-03-02T03:50:15.973Z,99228.88
2024-03-02T03:52:42.545Z,99232.06
2024-03-02T03:55:09.610Z,99234.84
2024-03-02T03:57:36.586Z,99233.03
2024-03-02T04:00:04.741Z,99234.44
2024-03-02T04:02:31.407Z,99238.22
2024-03-02T04:04:57.922Z,99238.88
2024-03-02T04:07:24.443Z,99239.91
2024-03-02T04:09:51.130Z,99243.53
2024-03-02T04:12:17.861Z,99251.19
2024-03-02T04:14:44.581Z,99251.59
2024-03-02T04:17:11.469Z,99251.47
2024-03-02T04:19:38.060Z,99253.28
2024-03-02T04:22:12.603Z,99256.91
2024-03-02T04:24:45.300Z,99262.22
2024-03-02T04:27:11.910Z,99256.63
2024-03-02T04:29:38.435Z,99256.34
2024-03-02T04:32:05.795Z,99268.38
2024-03-02T04:34:32.351Z,99263.59
2024-03-02T04:36:58.951Z,99262.75
2024-03-02T04:39:26.154Z,99264.44
2024-03-02T04:41:52.626Z,99257.44
2024-03-02T04:44:19.222Z,99262.09
2024-03-02T04:46:45.745Z,99265.16
2024-03-02T04:49:12.505Z,99270.88
2024-03-02T04:51:39.224Z,99275.06
2024-03-02T04:54:05.890Z,99271.00
2024-03-02T04:56:32.441Z,99269.19
2024-03-02T04:58:59.008Z,99272.53
2024-03-02T05:01:25.615Z,99268.06
2024-03-02T05:03:52.362Z,99272.97
2024-03-02T05:06:19.089Z,99271.69
2024-03-02T05:08:46.167Z,99266.09
2024-03-02T05:11:31.393Z,99267.63
2024-03-02T05:13:57.988Z,99274.47
2024-03-02T05:16:24.544Z,99265.41
2024-03-02T05:18:51.358Z,99265.22
2024-03-02T05:21:17.954Z,99272.22
2024-03-02T05:23:45.280Z,99271.13
2024-03-02T05:26:13.967Z,99269.13
2024-03-02T05:28:40.663Z,99273.59
2024-03-02T05:31:07.967Z,99277.53
2024-03-02T05:33:34.696Z,99271.38
2024-03-02T05:36:03.026Z,99273.91
2024-03-02T05:38:29.636Z,99273.50
2024-03-02T05:40:56.192Z,99273.63
2024-03-02T05:43:22.741Z,99270.84
2024-03-02T05:45:49.394Z,99276.16
2024-03-02T05:48:16.001Z,99269.88
2024-03-02T05:50:42.607Z,99266.50
2024-03-02T05:53:09.316Z,99271.69
2024-03-02T05:55:36.678Z,99278.13
2024-03-02T05:58:28.894Z,99281.06
2024-03-02T06:00:55.936Z,99294.59
2024-03-02T06:03:22.557Z,99292.38
2024-03-02T06:05:50.455Z,99298.53
2024-03-02T06:08:17.149Z,99302.84
2024-03-02T06:10:44.618Z,99301.59
2024-03-02T06:13:11.186Z,99311.66
2024-03-02T06:15:37.885Z,99305.09
2024-03-02T06:18:04.822Z,99316.13
2024-03-02T06:20:35.212Z,99313.88
2024-03-02T06:23:03.259Z,99308.28
2024-03-02T06:25:29.861Z,99313.34
2024-03-02T06:27:56.509Z,99303.25
2024-03-02T06:30:23.289Z,99301.19
2024-03-02T06:32:49.965Z,99306.91
2024-03-02T06:35:16.627Z,99305.63
2024-03-02T06:37:43.454Z,99310.38
2024-03-02T06:40:10.810Z,99317.09
2024-03-02T06:42:37.527Z,99310.38
2024-03-02T06:45:04.777Z,99311.88
2024-03-02T06:47:31.670Z,99314.94
2024-03-02T06:49:59.649Z,99315.50
2024-03-02T06:52:26.349Z,99311.59
2024-03-02T06:54:53.040Z,99317.47
2024-03-02T06:57:21.011Z,99306.41
2024-03-02T06:59:48.356Z,99320.25
2024-03-02T07:02:14.936Z,99311.16
2024-03-02T07:04:41.558Z,99318.84
2024-03-02T07:07:08.180Z,99324.16
2024-03-02T07:09:34.879Z,99320.78
2024-03-02T07:12:01.641Z,99321.63
2024-03-02T07:14:48.124Z,99322.19
2024-03-02T07:17:14.670Z,99320.53
2024-03-02T07:19:41.286Z,99321.78
2024-03-02T07:22:09.271Z,99326.09
2024-03-02T07:24:43.080Z,99325.84
2024-03-02T07:27:14.054Z,99336.03
2024-03-02T07:29:41.225Z,99317.97
2024-03-02T07:32:08.215Z,99329.16
2024-03-02T07:34:35.136Z,99337.81
2024-03-02T07:37:01.980Z,99329.84
2024-03-02T07:39:28.796Z,99330.84
2024-03-02T07:41:55.405Z,99329.03
2024-03-02T07:44:22.169Z,99338.63
2024-03-02T07:46:51.167Z,99341.28
2024-03-02T07:49:18.355Z,99340.75
2024-03-02T07:51:45.029Z,99334.75
2024-03-02T07:54:11.839Z,99341.03
2024-03-02T07:56:38.623Z,99337.56
2024-03-02T07:59:06.045Z,99339.22
2024-03-02T08:01:33.467Z,99340.66
2024-03-02T08:04:06.631Z,99345.97
2024-03-02T08:06:33.382Z,99342.34
2024-03-02T08:09:01.659Z,99344.91
2024-03-02T08:11:28.627Z,99352.44
2024-03-02T08:13:57.861Z,99353.00
2024-03-02T08:16:24.744Z,99359.69
2024-03-02T08:18:52.205Z,99351.03
2024-03-02T08:21:19.314Z,99358.72
2024-03-02T08:23:46.128Z,99355.25
2024-03-02T08:26:13.005Z,99358.59
2024-03-02T08:28:43.308Z,99352.88
2024-03-02T08:31:10.285Z,99348.25
2024-03-02T08:33:38.678Z,99350.75
2024-03-02T08:36:06.349Z,99353.84
2024-03-02T08:38:33.560Z,99343.50
2024-03-02T08:41:00.069Z,99351.72
2024-03-02T08:43:26.710Z,99356.06
2024-03-02T08:45:53.459Z,99355.81
2024-03-02T08:48:21.652Z,99358.72
2024-03-02T08:50:48.279Z,99349.63
2024-03-02T08:53:19.246Z,99351.72
2024-03-02T08:55:47.409Z,99347.38
2024-03-02T08:58:14.267Z,99345.88
2024-03-02T09:00:41.854Z,99353.97
2024-03-02T09:03:09.099Z,99356.19
2024-03-02T09:05:35.732Z,99354.13
2024-03-02T09:08:02.481Z,99349.38
2024-03-02T09:10:29.128Z,99353.69
2024-03-02T09:12:56.071Z,99358.84
2024-03-02T09:15:22.753Z,99361.63
2024-03-02T09:17:49.440Z,99363.88
2024-03-02T09:20:16.070Z,99361.88
2024-03-02T09:22:42.744Z,99363.28
2024-03-02T09:25:09.941Z,99367.72
2024-03-02T09:27:39.913Z,99368.66
2024-03-02T09:30:09.333Z,99366.00
2024-03-02T09:32:36.029Z,99369.13
2024-03-02T09:35:02.680Z,99371.25
2024-03-02T09:37:29.983Z,99372.38
2024-03-02T09:39:56.720Z,99361.06
2024-03-02T09:42:24.922Z,99366.09
2024-03-02T09:44:51.847Z,99368.19
2024-03-02T09:47:18.511Z,99369.16
2024-03-02T09:49:45.112Z,99373.63
2024-03-02T09:52:12.086Z,99360.53
2024-03-02T09:54:39.546Z,99366.81
2024-03-02T09:57:06.213Z,99367.50
2024-03-02T09:59:32.803Z,99364.88
2024-03-02T10:02:04.174Z,99361.53
2024-03-02T10:04:36.911Z,99362.22
2024-03-02T10:07:14.741Z,99358.84
2024-03-02T10:09:43.979Z,99360.25
2024-03-02T10:12:12.913Z,99363.19
2024-03-02T10:14:40.143Z,99359.28
2024-03-02T10:17:11.606Z,99357.47
2024-03-02T10:19:40.272Z,99364.88
2024-03-02T10:22:09.621Z,99363.63
2024-03-02T10:24:41.598Z,99360.25
2024-03-02T10:27:19.136Z,99361.94
2024-03-02T10:29:49.263Z,99358.59
2024-03-02T10:32:17.176Z,99360.25
2024-03-02T10:34:46.681Z,99358.16
2024-03-02T10:37:14.076Z,99358.19
2024-03-02T10:39:41.889Z,99352.31
2024-03-02T10:42:09.438Z,99353.56
2024-03-02T10:44:36.785Z,99354.81
2024-03-02T10:47:06.183Z,99361.94
2024-03-02T10:49:33.913Z,99352.72
2024-03-02T10:52:00.940Z,99357.19
2024-03-02T10:54:30.420Z,99355.50
2024-03-02T10:57:04.508Z,99352.84
2024-03-02T10:59:36.226Z,99351.06
2024-03-02T11:02:06.098Z,99353.00
2024-03-02T11:04:36.701Z,99347.28
2024-03-02T11:07:06.315Z,99343.75
2024-03-02T11:09:36.868Z,99341.84
2024-03-02T11:12:58.213Z,99344.88
2024-03-02T11:15:27.260Z,99339.84
2024-03-02T11:17:54.609Z,99336.94
2024-03-02T11:20:22.083Z,99340.44
2024-03-02T11:22:48.971Z,99343.22
2024-03-02T11:25:29.043Z,99338.88
2024-03-02T11:27:55.657Z,99315.00
2024-03-02T11:30:34.721Z,99337.75
2024-03-02T11:33:13.085Z,99336.50
2024-03-02T11:35:48.588Z,99338.88
2024-03-02T11:38:15.283Z,99337.06
2024-03-02T11:40:42.258Z,99336.09
2024-03-02T11:43:09.852Z,99323.97
2024-03-02T11:45:41.358Z,99323.13
2024-03-02T11:48:13.868Z,99329.53
2024-03-02T11:51:00.869Z,99327.31
2024-03-02T11:53:32.212Z,99323.53
2024-03-02T11:56:00.197Z,99321.72
2024-03-02T11:58:28.655Z,99314.44
2024-03-02T12:00:56.789Z,99323.06
2024-03-02T12:03:25.115Z,99326.13
2024-03-02T12:05:52.415Z,99324.91
2024-03-02T12:08:19.224Z,99319.34
2024-03-02T12:11:03.262Z,99327.56
2024-03-02T12:13:31.000Z,99321.84
2024-03-02T12:15:57.924Z,99314.31
2024-03-02T12:18:25.066Z,99322.56
2024-03-02T12:21:04.200Z,99329.53
2024-03-02T12:23:30.849Z,99328.69
2024-03-02T12:25:57.771Z,99328.44
2024-03-02T12:28:24.476Z,99326.88
2024-03-02T12:30:51.314Z,99328.97
2024-03-02T12:33:18.075Z,99326.19
2024-03-02T12:35:44.932Z,99322.81
2024-03-02T12:38:12.288Z,99332.72
2024-03-02T12:40:39.239Z,99327.00
2024-03-02T12:43:07.218Z,99324.47
2024-03-02T12:45:35.445Z,99316.94
2024-03-02T12:48:03.412Z,99332.88
2024-03-02T12:50:30.107Z,99327.16
2024-03-02T12:52:57.100Z,99323.38
2024-03-02T12:55:25.214Z,99325.06
2024-03-02T12:57:55.832Z,99329.53
2024-03-02T13:00:23.911Z,99331.03
2024-03-02T13:02:52.824Z,99331.44
2024-03-02T13:05:20.706Z,99324.19
2024-03-02T13:07:49.266Z,99329.22
2024-03-02T13:10:16.507Z,99326.00
2024-03-02T13:12:43.462Z,99323.03
2024-03-02T13:15:11.882Z,99320.38
2024-03-02T13:17:40.722Z,99323.06
2024-03-02T13:20:11.662Z,99324.50
2024-03-02T13:22:38.790Z,99335.38
2024-03-02T13:25:06.608Z,99328.69
2024-03-02T13:27:34.086Z,99330.38
2024-03-02T13:30:00.844Z,99332.59
2024-03-02T13:32:27.649Z,99329.41
2024-03-02T13:34:54.317Z,99332.06
2024-03-02T13:37:22.393Z,99336.66
2024-03-02T13:39:49.086Z,99333.72
2024-03-02T13:42:16.517Z,99338.19
2024-03-02T13:44:52.140Z,99340.28
2024-03-02T13:47:19.024Z,99338.88
2024-03-02T13:49:48.107Z,99341.25
2024-03-02T13:52:17.193Z,99347.00
2024-03-02T13:54:46.054Z,99341.69
2024-03-02T13:57:13.374Z,99347.94
2024-03-02T13:59:41.331Z,99344.59
2024-03-02T14:02:08.676Z,99352.38
2024-03-02T14:04:36.134Z,99353.31
2024-03-02T14:07:03.241Z,99355.53
2024-03-02T14:09:30.240Z,99358.44
2024-03-02T14:11:57.516Z,99355.63
2024-03-02T14:14:24.551Z,99359.28
2024-03-02T14:16:51.482Z,99353.44
2024-03-02T14:19:18.180Z,99355.41
2024-03-02T14:21:44.805Z,99356.00
2024-03-02T14:24:11.511Z,99364.09
2024-03-02T14:26:38.411Z,99359.13
2024-03-02T14:29:05.663Z,99359.28
2024-03-02T14:31:32.631Z,99364.03
2024-03-02T14:33:59.852Z,99358.44
2024-03-02T14:36:28.876Z,99360.81
2024-03-02T14:38:56.965Z,99356.50
2024-03-02T14:41:25.648Z,99361.09
2024-03-02T14:43:52.802Z,99364.44
2024-03-02T14:46:20.381Z,99366.97
2024-03-02T14:48:47.774Z,99359.16
2024-03-02T14:51:15.285Z,99357.41
2024-03-02T14:53:42.600Z,99359.41
2024-03-02T14:56:10.174Z,99354.19
2024-03-02T14:58:37.965Z,99356.28
2024-03-02T15:01:10.016Z,99351.00
2024-03-02T15:03:37.341Z,99350.56
2024-03-02T15:06:05.553Z,99354.00
2024-03-02T15:08:32.287Z,99354.16
2024-03-02T15:11:05.440Z,99356.66
2024-03-02T15:13:32.130Z,99357.34
2024-03-02T15:15:59.444Z,99351.06
2024-03-02T15:18:26.284Z,99364.56
2024-03-02T15:20:52.951Z,99358.19
2024-03-02T15:23:22.856Z,99364.03
2024-03-02T15:25:49.486Z,99359.03
2024-03-02T15:28:16.105Z,99359.66
2024-03-02T15:30:42.908Z,99358.84
2024-03-02T15:33:09.559Z,99348.63
2024-03-02T15:35:36.263Z,99354.53
2024-03-02T15:38:03.053Z,99353.25
2024-03-02T15:40:30.362Z,99349.34
2024-03-02T15:42:57.003Z,99359.94
2024-03-02T15:45:23.658Z,99353.69
2024-03-02T15:47:50.339Z,99352.03
2024-03-02T15:50:17.119Z,99350.06
2024-03-02T15:52:43.802Z,99350.19
2024-03-02T15:55:10.515Z,99356.09
2024-03-02T15:57:37.414Z,99355.94
2024-03-02T16:00:06.304Z,99348.38
2024-03-02T16:02:33.332Z,99349.38
2024-03-02T16:04:59.863Z,99358.31
2024-03-02T16:07:26.391Z,99356.63
2024-03-02T16:09:52.944Z,99357.47
2024-03-02T16:12:19.651Z,99355.66
2024-03-02T16:14:46.243Z,99358.16
2024-03-02T16:17:12.835Z,99358.88
2024-03-02T16:19:42.123Z,99361.94
2024-03-02T16:22:12.226Z,99367.53
2024-03-02T16:24:39.141Z,99370.03
2024-03-02T16:27:05.832Z,99358.00
2024-03-02T16:29:33.293Z,99361.09
2024-03-02T16:32:01.219Z,99362.06
2024-03-02T16:34:28.371Z,99365.94
2024-03-02T16:36:55.341Z,99367.19
2024-03-02T16:39:21.948Z,99366.63
2024-03-02T16:41:48.524Z,99363.56
2024-03-02T16:44:15.292Z,99367.47
2024-03-02T16:46:41.977Z,99372.47
2024-03-02T16:49:08.642Z,99369.41
2024-03-02T16:51:42.096Z,99369.28
2024-03-02T16:54:08.796Z,99369.94
2024-03-02T16:56:42.545Z,99375.00
2024-03-02T16:59:09.550Z,99369.38
2024-03-02T17:01:36.634Z,99370.78
2024-03-02T17:04:05.388Z,99375.78
2024-03-02T17:06:32.398Z,99374.97
2024-03-02T17:08:59.020Z,99374.13
2024-03-02T17:11:25.813Z,99379.16
2024-03-02T17:13:58.744Z,99385.06
2024-03-02T17:16:26.239Z,99384.13
2024-03-02T17:18:53.425Z,99390.28
2024-03-02T17:21:20.717Z,99391.13
2024-03-02T17:23:47.319Z,99383.97
2024-03-02T17:26:14.174Z,99381.19
2024-03-02T17:28:42.425Z,99386.78
2024-03-02T17:31:09.182Z,99385.50
2024-03-02T17:33:36.152Z,99382.84
2024-03-02T17:36:04.971Z,99383.53
2024-03-02T17:38:31.785Z,99392.91
2024-03-02T17:40:58.663Z,99392.34
2024-03-02T17:43:25.553Z,99394.78
2024-03-02T17:45:52.213Z,99399.25
2024-03-02T17:48:18.898Z,99398.28
2024-03-02T17:50:45.532Z,99404.84
2024-03-02T17:53:12.224Z,99402.75
2024-03-02T17:55:38.857Z,99406.78
2024-03-02T17:58:05.517Z,99399.22
2024-03-02T18:00:32.361Z,99408.47
2024-03-02T18:02:59.003Z,99405.53
2024-03-02T18:05:25.596Z,99408.59
2024-03-02T18:07:52.319Z,99403.69
2024-03-02T18:10:19.194Z,99397.94
2024-03-02T18:12:49.292Z,99398.22
2024-03-02T18:15:16.066Z,99392.47
2024-03-02T18:17:42.867Z,99396.97
2024-03-02T18:20:11.729Z,99393.47
2024-03-02T18:22:38.291Z,99390.63
2024-03-02T18:25:06.203Z,99391.47
2024-03-02T18:27:35.067Z,99387.97
2024-03-02T18:30:05.811Z,99389.13
2024-03-02T18:32:33.931Z,99386.63
2024-03-02T18:35:00.845Z,99387.47
2024-03-02T18:37:27.582Z,99392.78
2024-03-02T18:39:54.928Z,99394.31
2024-03-02T18:42:21.563Z,99391.94
2024-03-02T18:44:50.292Z,99404.66
2024-03-02T18:47:17.132Z,99402.28
2024-03-02T18:49:47.351Z,99406.06
2024-03-02T18:52:14.701Z,99413.03
2024-03-02T18:54:45.227Z,99412.19
2024-03-02T18:57:12.035Z,99409.97
2024-03-02T18:59:38.766Z,99417.28
2024-03-02T19:02:06.042Z,99409.13
2024-03-02T19:04:32.977Z,99424.94
2024-03-02T19:06:59.857Z,99407.06
2024-03-02T19:09:26.538Z,99411.22
2024-03-02T19:11:53.107Z,99413.75
2024-03-02T19:14:19.973Z,99425.66
2024-03-02T19:16:46.674Z,99417.38
2024-03-02T19:19:13.424Z,99422.56
2024-03-02T19:21:40.128Z,99418.94
2024-03-02T19:24:06.919Z,99432.09
2024-03-02T19:26:35.085Z,99428.41
2024-03-02T19:29:01.848Z,99429.00
2024-03-02T19:31:28.462Z,99431.34
2024-03-02T19:33:55.111Z,99431.22
2024-03-02T19:36:21.851Z,99427.56
2024-03-02T19:38:48.389Z,99431.06
2024-03-02T19:41:15.177Z,99425.91
2024-03-02T19:43:41.981Z,99431.22
2024-03-02T19:46:08.590Z,99429.53
2024-03-02T19:48:35.331Z,99434.84
2024-03-02T19:51:01.905Z,99436.00
2024-03-02T19:53:28.567Z,99435.16
2024-03-02T19:55:55.639Z,99438.47
2024-03-02T19:58:22.449Z,99440.47
2024-03-02T20:00:49.172Z,99451.34
2024-03-02T20:03:15.853Z,99448.84
2024-03-02T20:05:42.479Z,99442.72
2024-03-02T20:08:09.146Z,99445.50
2024-03-02T20:10:36.252Z,99443.53
2024-03-02T20:13:06.015Z,99441.03
2024-03-02T20:15:33.163Z,99443.13
2024-03-02T20:17:59.807Z,99440.63
2024-03-02T20:20:26.541Z,99443.28
2024-03-02T20:22:53.154Z,99447.19
2024-03-02T20:25:20.132Z,99446.50
2024-03-02T20:27:46.902Z,99447.47
2024-03-02T20:30:13.906Z,99445.78
2024-03-02T20:32:40.658Z,99443.28
2024-03-02T20:35:07.790Z,99436.44
2024-03-02T20:37:34.396Z,99435.72
2024-03-02T20:40:01.631Z,99437.41
2024-03-02T20:42:28.508Z,99442.00
2024-03-02T20:44:55.185Z,99439.22
2024-03-02T20:47:23.777Z,99440.75
2024-03-02T20:49:52.182Z,99438.94
2024-03-02T20:52:19.389Z,99433.91
2024-03-02T20:54:46.598Z,99440.91
2024-03-02T20:57:13.283Z,99441.88
2024-03-02T20:59:40.501Z,99441.44
2024-03-02T21:02:07.684Z,99432.94
2024-03-02T21:04:34.465Z,99434.03
2024-03-02T21:07:01.284Z,99438.69
2024-03-02T21:09:27.995Z,99436.28
2024-03-02T21:11:54.767Z,99438.94
2024-03-02T21:14:21.368Z,99435.56
2024-03-02T21:16:50.736Z,99434.59
2024-03-02T21:19:18.018Z,99430.13
2024-03-02T21:21:45.221Z,99440.75
2024-03-02T21:24:11.801Z,99439.22
2024-03-02T21:26:42.406Z,99441.59
2024-03-02T21:29:09.678Z,99436.00
2024-03-02T21:31:36.409Z,99441.72
2024-03-02T21:34:03.141Z,99440.72
2024-03-02T21:36:29.808Z,99434.16
2024-03-02T21:38:56.397Z,99424.75
2024-03-02T21:41:23.747Z,99431.81
2024-03-02T21:43:50.334Z,99426.94
2024-03-02T21:46:17.480Z,99428.31
2024-03-02T21:48:44.257Z,99430.19
2024-03-02T21:51:20.226Z,99431.69
2024-03-02T21:53:47.104Z,99436.97
2024-03-02T21:56:14.146Z,99429.84
2024-03-02T21:58:41.084Z,99424.50
2024-03-02T22:01:08.198Z,99426.06
2024-03-02T22:03:35.057Z,99431.22
2024-03-02T22:06:01.665Z,99427.47
2024-03-02T22:08:31.118Z,99421.19
2024-03-02T22:10:57.735Z,99427.47
2024-03-02T22:13:24.409Z,99423.59
2024-03-02T22:15:51.086Z,99419.25
2024-03-02T22:18:17.666Z,99419.09
2024-03-02T22:20:44.253Z,99425.94
2024-03-02T22:23:11.053Z,99425.34
2024-03-02T22:25:37.774Z,99424.19
2024-03-02T22:28:04.586Z,99428.50
2024-03-02T22:30:31.221Z,99434.50
2024-03-02T22:32:58.461Z,99424.13
2024-03-02T22:35:27.897Z,99426.53
2024-03-02T22:37:55.056Z,99430.41
2024-03-02T22:40:23.925Z,99430.41
2024-03-02T22:42:50.577Z,99427.50
2024-03-02T22:45:17.161Z,99425.53
2024-03-02T22:47:43.817Z,99422.22
2024-03-02T22:50:11.273Z,99425.09
2024-03-02T22:52:37.870Z,99425.69
2024-03-02T22:55:04.904Z,99431.69
2024-03-02T22:57:31.575Z,99420.25
2024-03-02T22:59:58.214Z,99420.25
2024-03-02T23:02:25.130Z,99417.59
2024-03-02T23:04:52.602Z,99423.28
2024-03-02T23:07:23.120Z,99427.00
2024-03-02T23:09:50.193Z,99422.59
2024-03-02T23:12:16.929Z,99437.00
2024-03-02T23:14:43.528Z,99427.78
2024-03-02T23:17:10.325Z,99416.13
2024-03-02T23:19:37.257Z,99432.25
2024-03-02T23:22:06.295Z,99439.38
2024-03-02T23:24:33.990Z,99437.72
2024-03-02T23:27:00.710Z,99443.91
2024-03-02T23:29:27.468Z,99441.13
2024-03-02T23:31:54.012Z,99432.25
2024-03-02T23:34:20.616Z,99441.16
2024-03-02T23:36:47.361Z,99441.53
2024-03-02T23:39:33.920Z,99437.31
2024-03-02T23:42:00.617Z,99439.94
2024-03-02T23:44:27.134Z,99437.75
2024-03-02T23:46:53.673Z,99437.53
2024-03-02T23:49:20.269Z,99440.28
2024-03-02T23:51:46.884Z,99434.63
2024-03-02T23:54:13.481Z,99438.47
2024-03-02T23:56:40.013Z,99430.75
2024-03-02T23:59:07.085Z,99428.56
